Time;durP1;ratioP1;P1;durP2;ratioP2;P2;SDS_P1;SDS_P2;PMS_P1;PMS_P2;Temp;Humidity;BMP_temperature;BMP_pressure;BME280_temperature;BME280_humidity;BME280_pressure;Samples;Min_cycle;Max_cycle;Signal;HPM_P1;HPM_P2
2022/06/06 00:02:26;;;;;;;85.10;32.90;;;;;;;15.89;84.66;101349.78;4969877;28;20070;-75
2022/06/06 00:04:52;;;;;;;81.88;33.60;;;;;;;15.88;84.91;101347.16;4973249;28;20023;-75
2022/06/06 00:07:17;;;;;;;79.15;32.75;;;;;;;15.85;85.04;101348.00;4973010;28;20041;-75
2022/06/06 00:09:43;;;;;;;88.72;32.90;;;;;;;15.85;85.26;101355.88;4973148;28;20035;-75
2022/06/06 00:12:08;;;;;;;88.20;33.95;;;;;;;15.83;85.03;101352.38;4972649;28;20198;-74
2022/06/06 00:14:34;;;;;;;81.43;32.47;;;;;;;15.81;85.64;101355.00;4973212;28;20041;-75
2022/06/06 00:16:59;;;;;;;73.72;30.27;;;;;;;15.82;85.59;101351.47;4971878;28;20039;-75
2022/06/06 00:19:24;;;;;;;76.43;32.67;;;;;;;15.81;85.65;101346.19;4972634;28;20445;-75
2022/06/06 00:21:50;;;;;;;81.82;32.47;;;;;;;15.80;85.94;101349.69;4973279;28;20402;-76
2022/06/06 00:24:16;;;;;;;79.60;31.17;;;;;;;15.78;86.38;101346.13;4971835;28;20030;-75
2022/06/06 00:26:42;;;;;;;77.88;30.08;;;;;;;15.77;86.35;101344.38;4973661;28;20015;-76
2022/06/06 00:29:09;;;;;;;78.43;30.33;;;;;;;15.80;86.13;101336.53;4971429;28;20442;-75
2022/06/06 00:37:07;;;;;;;69.97;28.38;;;;;;;15.80;86.31;101337.44;4972782;28;20093;-76
2022/06/06 00:39:33;;;;;;;80.63;30.17;;;;;;;15.80;86.08;101337.44;4971721;28;20046;-75
2022/06/06 00:41:59;;;;;;;72.28;29.85;;;;;;;15.77;86.59;101329.50;4972025;28;20097;-75
2022/06/06 00:44:34;;;;;;;75.55;28.75;;;;;;;15.78;86.49;101326.03;4972588;28;20027;-75
2022/06/06 00:47:26;;;;;;;69.25;28.13;;;;;;;15.80;84.95;101326.94;4964749;28;20106;-75
2022/06/06 00:50:00;;;;;;;69.25;27.55;;;;;;;15.81;85.75;101327.81;4971907;28;20465;-75
2022/06/06 00:52:34;;;;;;;67.88;27.02;;;;;;;15.85;85.23;101326.09;4972231;28;20030;-75
2022/06/06 00:55:06;;;;;;;69.65;28.58;;;;;;;15.81;86.13;101330.44;4972584;28;20364;-75
2022/06/06 00:57:34;;;;;;;67.18;27.35;;;;;;;15.81;85.43;101326.09;4971501;28;21240;-75
2022/06/06 01:00:06;;;;;;;69.60;28.60;;;;;;;15.80;85.91;101320.78;4972994;28;20030;-75
2022/06/06 01:02:32;;;;;;;66.30;28.08;;;;;;;15.78;86.08;101323.41;4970590;28;20038;-76
2022/06/06 01:04:58;;;;;;;62.65;26.38;;;;;;;15.81;85.72;101330.44;4972446;28;20042;-75
2022/06/06 01:07:23;;;;;;;68.28;27.38;;;;;;;15.80;85.75;101328.66;4972295;28;20477;-75
2022/06/06 01:09:49;;;;;;;71.22;28.33;;;;;;;15.80;86.13;101326.03;4965339;28;20157;-75
2022/06/06 01:12:17;;;;;;;76.25;28.52;;;;;;;15.82;85.19;101324.31;4970612;28;20022;-76
2022/06/06 01:14:52;;;;;;;70.57;28.10;;;;;;;15.84;85.32;101330.47;4972229;28;20041;-76
2022/06/06 01:17:37;;;;;;;73.25;28.98;;;;;;;15.89;85.21;101325.25;4971966;28;20033;-76
2022/06/06 01:20:45;;;;;;;77.95;29.73;;;;;;;15.90;85.09;101329.66;4970913;28;20035;-75
2022/06/06 01:23:43;;;;;;;70.35;28.40;;;;;;;15.91;84.32;101321.78;4970922;28;20412;-76
2022/06/06 01:26:08;;;;;;;84.65;33.67;;;;;;;15.90;85.24;101321.75;4969342;28;20041;-76
2022/06/06 01:28:46;;;;;;;86.50;32.88;;;;;;;15.88;84.91;101324.38;4971975;28;20027;-75
2022/06/06 01:31:24;;;;;;;88.70;35.10;;;;;;;15.86;85.24;101323.50;4971158;28;20062;-75
2022/06/06 01:33:57;;;;;;;87.93;33.53;;;;;;;15.86;85.42;101326.13;4969455;28;20046;-75
2022/06/06 01:36:26;;;;;;;88.15;33.72;;;;;;;15.87;83.58;101327.00;4970732;28;20513;-75
2022/06/06 01:38:53;;;;;;;91.03;35.35;;;;;;;15.84;85.70;101325.19;4971843;28;20117;-76
2022/06/06 01:41:51;;;;;;;88.32;34.65;;;;;;;15.88;85.43;101320.88;4970287;28;20085;-76
2022/06/06 01:44:20;;;;;;;89.80;35.47;;;;;;;15.84;85.35;101321.72;4971044;28;20089;-76
2022/06/06 01:46:47;;;;;;;94.07;35.37;;;;;;;15.84;85.34;101324.34;4971375;28;20042;-75
2022/06/06 01:49:15;;;;;;;82.72;34.72;;;;;;;15.82;85.14;101321.69;4968130;28;20178;-75
2022/06/06 01:51:41;;;;;;;81.83;34.83;;;;;;;15.83;85.85;101323.47;4971378;28;20034;-76
2022/06/06 01:54:07;;;;;;;81.35;33.40;;;;;;;15.84;84.97;101330.47;4971250;28;20035;-75
2022/06/06 01:56:36;;;;;;;84.63;34.55;;;;;;;15.82;85.70;101325.19;4971117;28;20490;-75
2022/06/06 01:59:02;;;;;;;78.22;33.28;;;;;;;15.81;86.82;101320.81;4970717;28;20073;-75
2022/06/06 02:01:28;;;;;;;75.97;31.08;;;;;;;15.86;85.29;101314.72;4971077;28;20031;-76
2022/06/06 02:03:53;;;;;;;75.03;32.08;;;;;;;15.82;85.92;101306.81;4970532;28;20521;-75
2022/06/06 02:06:19;;;;;;;70.88;30.50;;;;;;;15.85;86.07;101316.47;4970382;28;20092;-76
2022/06/06 02:08:47;;;;;;;70.75;30.02;;;;;;;15.81;86.60;101315.56;4970953;28;20035;-75
2022/06/06 02:11:12;;;;;;;71.88;29.80;;;;;;;15.78;86.40;101299.75;4971223;28;20023;-75
2022/06/06 02:13:38;;;;;;;70.80;29.58;;;;;;;15.78;86.19;101294.50;4971227;28;20169;-76
2022/06/06 02:16:04;;;;;;;64.13;27.40;;;;;;;15.81;84.90;101281.41;4970617;28;20062;-75
2022/06/06 02:18:30;;;;;;;70.68;28.63;;;;;;;15.81;84.98;101291.03;4970872;28;20074;-75
2022/06/06 02:20:55;;;;;;;65.38;27.75;;;;;;;15.81;85.41;101294.56;4970283;28;20471;-75
2022/06/06 02:23:21;;;;;;;64.18;29.30;;;;;;;15.79;86.03;101303.28;4970847;28;20449;-75
2022/06/06 02:25:47;;;;;;;73.25;28.80;;;;;;;15.81;84.87;101301.53;4969581;28;20041;-75
2022/06/06 02:28:12;;;;;;;68.85;29.40;;;;;;;15.78;85.98;101299.75;4969979;28;20153;-75
2022/06/06 02:30:38;;;;;;;65.20;26.25;;;;;;;15.79;85.46;101303.28;4971107;28;20065;-76
2022/06/06 02:33:04;;;;;;;60.38;26.52;;;;;;;15.78;85.13;101305.00;4970825;28;20506;-75
2022/06/06 02:35:40;;;;;;;67.95;28.27;;;;;;;15.78;85.64;101302.38;4970978;28;20501;-75
2022/06/06 02:38:08;;;;;;;67.38;28.25;;;;;;;15.76;85.64;101298.84;4966660;28;20030;-76
2022/06/06 02:40:33;;;;;;;66.78;28.17;;;;;;;15.73;85.79;101304.06;4969388;28;20384;-76
2022/06/06 02:42:59;;;;;;;69.95;28.85;;;;;;;15.74;85.83;101295.31;4968963;28;20483;-75
2022/06/06 02:45:25;;;;;;;70.03;29.48;;;;;;;15.73;85.30;101295.28;4970964;28;20042;-75
2022/06/06 02:47:54;;;;;;;69.90;29.08;;;;;;;15.73;84.74;101293.56;4970420;28;20558;-75
2022/06/06 02:50:25;;;;;;;70.85;28.92;;;;;;;15.74;85.20;101294.41;4970624;28;20031;-75
2022/06/06 02:52:51;;;;;;;71.88;29.17;;;;;;;15.71;85.22;101299.66;4970566;28;20073;-75
2022/06/06 02:55:17;;;;;;;72.43;28.77;;;;;;;15.69;85.30;101304.91;4971269;28;20085;-75
2022/06/06 02:57:45;;;;;;;69.90;28.58;;;;;;;15.70;85.01;101301.41;4970354;28;20046;-75
2022/06/06 03:00:14;;;;;;;75.03;29.37;;;;;;;15.71;85.44;101299.66;4970525;28;20030;-75
2022/06/06 03:02:39;;;;;;;64.70;27.95;;;;;;;15.73;85.23;101300.53;4970880;28;20498;-75
2022/06/06 03:05:06;;;;;;;67.13;27.55;;;;;;;15.75;83.92;101301.44;4970484;28;20043;-75
2022/06/06 03:07:41;;;;;;;72.25;28.90;;;;;;;15.73;84.57;101287.41;4970511;28;20038;-75
2022/06/06 03:10:29;;;;;;;64.00;27.15;;;;;;;15.75;84.49;101291.81;4971594;28;20045;-75
2022/06/06 03:12:54;;;;;;;70.80;27.40;;;;;;;15.72;84.37;101290.91;4970417;28;20077;-74
2022/06/06 03:15:38;;;;;;;67.95;28.67;;;;;;;15.71;84.07;101295.25;4976926;28;20031;-74
2022/06/06 03:21:37;;;;;;;71.20;28.27;;;;;;;15.71;82.51;101303.16;4970588;28;20162;-74
2022/06/06 03:24:31;;;;;;;70.28;27.80;;;;;;;15.71;82.89;101310.16;4971946;28;20045;-74
2022/06/06 03:27:19;;;;;;;68.88;28.63;;;;;;;15.68;83.85;101310.13;4973998;28;20042;-75
2022/06/06 03:29:56;;;;;;;70.97;28.80;;;;;;;15.67;83.38;101311.00;4973987;28;20054;-75
2022/06/06 03:32:41;;;;;;;67.47;27.98;;;;;;;15.62;83.61;101317.06;4971904;28;20034;-75
2022/06/06 03:35:19;;;;;;;64.75;27.58;;;;;;;15.56;84.01;101306.50;4967510;28;20483;-75
2022/06/06 03:37:50;;;;;;;63.67;27.02;;;;;;;15.54;83.39;101309.97;4973999;28;20027;-76
2022/06/06 03:40:24;;;;;;;65.05;26.92;;;;;;;15.53;83.16;101309.09;4973327;28;20081;-75
2022/06/06 03:42:49;;;;;;;61.33;26.65;;;;;;;15.52;83.55;101304.72;4973701;28;20042;-74
2022/06/06 03:45:23;;;;;;;59.38;26.17;;;;;;;15.54;82.95;101307.34;4972825;28;20038;-75
2022/06/06 03:48:07;;;;;;;63.08;27.05;;;;;;;15.50;82.75;101308.19;4973432;28;20477;-74
2022/06/06 03:50:53;;;;;;;59.10;25.58;;;;;;;15.50;82.19;101310.81;4973594;28;20049;-75
2022/06/06 03:53:55;;;;;;;59.20;25.02;;;;;;;15.40;82.49;101308.09;5008881;22;20530;-96
2022/06/06 03:56:45;;;;;;;57.60;25.38;;;;;;;15.37;82.45;101315.94;5003228;28;20025;-96
2022/06/06 03:59:19;;;;;;;55.28;24.20;;;;;;;15.34;82.22;101310.66;5032294;28;20046;-96
2022/06/06 04:01:54;;;;;;;55.58;24.30;;;;;;;15.34;81.63;101312.38;5039661;28;20170;-96
2022/06/06 04:04:21;;;;;;;54.33;24.70;;;;;;;15.27;82.00;101299.19;5041213;28;20065;-96
2022/06/06 04:06:53;;;;;;;52.17;23.67;;;;;;;15.26;81.72;101307.91;5029146;28;20098;-96
2022/06/06 04:09:19;;;;;;;54.67;24.23;;;;;;;15.24;82.38;101311.41;5018929;28;20094;-96
2022/06/06 04:12:09;;;;;;;50.35;22.60;;;;;;;15.22;81.84;101326.25;5029721;28;20404;-96
2022/06/06 04:14:38;;;;;;;50.25;23.13;;;;;;;15.25;81.23;101321.94;5033320;28;20078;-97
2022/06/06 04:17:27;;;;;;;53.90;23.13;;;;;;;15.24;81.82;101333.28;5038312;28;20080;-96
2022/06/06 04:20:46;;;;;;;51.85;22.45;;;;;;;15.24;81.45;101329.78;5031349;28;20042;-96
2022/06/06 04:24:16;;;;;;;43.30;19.65;;;;;;;15.22;81.13;101331.50;5031842;28;20025;-96
2022/06/06 04:27:00;;;;;;;44.00;19.87;;;;;;;15.19;80.78;101331.47;5010219;28;20046;-96
2022/06/06 04:30:03;;;;;;;44.17;20.33;;;;;;;15.17;80.90;101344.56;5002491;28;20265;-96
2022/06/06 04:32:56;;;;;;;43.80;19.95;;;;;;;15.16;80.56;101336.69;5011691;23;20410;-73
2022/06/06 04:35:26;;;;;;;43.53;19.13;;;;;;;15.08;80.60;101334.84;4976060;28;20042;-74
2022/06/06 04:38:09;;;;;;;46.20;20.23;;;;;;;15.06;80.46;101346.16;4985906;28;20498;-73
2022/06/06 04:40:45;;;;;;;44.42;19.88;;;;;;;15.05;79.97;101352.31;4990703;28;20579;-74
2022/06/06 04:43:41;;;;;;;43.33;19.88;;;;;;;14.99;79.95;101345.22;4980594;28;20073;-74
2022/06/06 04:46:20;;;;;;;45.60;19.50;;;;;;;14.95;79.61;101348.66;4974996;28;20098;-74
2022/06/06 04:48:47;;;;;;;39.95;18.77;;;;;;;14.93;79.63;101350.38;4976500;28;20226;-74
2022/06/06 04:51:17;;;;;;;38.65;18.30;;;;;;;14.98;79.63;101353.09;4973040;28;20031;-73
2022/06/06 04:53:46;;;;;;;41.10;18.92;;;;;;;14.96;80.13;101347.78;4988945;28;20033;-74
2022/06/06 04:56:14;;;;;;;42.22;19.33;;;;;;;14.95;79.49;101348.66;4982362;28;20255;-74
2022/06/06 04:58:42;;;;;;;46.97;20.08;;;;;;;14.94;79.04;101350.38;4990900;28;20042;-74
2022/06/06 05:01:08;;;;;;;40.95;19.42;;;;;;;14.98;78.83;101348.72;4990396;28;20030;-74
2022/06/06 05:03:33;;;;;;;41.33;19.40;;;;;;;14.95;79.26;101346.03;4991806;28;20398;-73
2022/06/06 05:06:12;;;;;;;42.47;20.45;;;;;;;14.98;78.50;101342.59;4991079;28;20105;-74
2022/06/06 05:09:02;;;;;;;41.95;20.65;;;;;;;14.98;78.56;101346.09;4990636;28;20063;-73
2022/06/06 05:12:00;;;;;;;44.90;21.23;;;;;;;14.96;78.38;101345.16;4990276;28;20034;-74
2022/06/06 05:14:45;;;;;;;42.65;21.23;;;;;;;14.96;78.58;101350.41;4982160;28;20507;-74
2022/06/06 05:17:13;;;;;;;46.38;22.25;;;;;;;14.98;79.06;101353.97;4991206;28;20575;-74
2022/06/06 05:20:02;;;;;;;46.05;22.27;;;;;;;15.00;78.86;101340.84;4989185;28;20502;-74
2022/06/06 05:22:44;;;;;;;46.38;23.08;;;;;;;15.02;77.53;101347.00;4989675;28;20093;-74
2022/06/06 05:25:27;;;;;;;45.25;22.40;;;;;;;15.00;77.48;101356.59;4990832;28;20506;-74
2022/06/06 05:28:11;;;;;;;48.25;23.58;;;;;;;14.98;77.81;101353.97;4989447;28;20022;-73
2022/06/06 05:30:53;;;;;;;46.05;24.40;;;;;;;14.97;77.99;101356.56;4989381;28;20532;-74
2022/06/06 05:33:45;;;;;;;45.42;23.63;;;;;;;14.99;78.08;101360.97;4991188;28;20030;-73
2022/06/06 05:36:24;;;;;;;44.70;23.08;;;;;;;14.97;77.69;101362.69;4989000;28;20045;-75
2022/06/06 05:39:00;;;;;;;43.25;23.13;;;;;;;14.93;77.48;101371.38;4991240;28;20022;-76
2022/06/06 05:41:59;;;;;;;46.40;22.85;;;;;;;14.99;77.82;101360.97;4989644;28;20034;-76
2022/06/06 05:44:56;;;;;;;40.35;20.90;;;;;;;15.06;77.42;101361.91;4990432;28;20026;-76
2022/06/06 05:48:02;;;;;;;38.95;21.42;;;;;;;15.09;77.47;101370.72;4989431;28;20094;-75
2022/06/06 05:50:46;;;;;;;38.30;21.02;;;;;;;15.07;76.61;101367.19;4985538;28;20042;-76
2022/06/06 05:53:30;;;;;;;38.55;21.45;;;;;;;15.08;76.34;101371.59;4989091;28;20049;-76
2022/06/06 05:56:13;;;;;;;34.53;20.23;;;;;;;15.07;76.82;101369.81;4977439;28;20478;-76
2022/06/06 05:58:51;;;;;;;34.60;20.30;;;;;;;15.10;76.28;101361.97;4990654;28;20120;-75
2022/06/06 06:01:41;;;;;;;36.83;21.25;;;;;;;15.13;76.48;101366.38;4985845;28;20065;-76
2022/06/06 06:04:28;;;;;;;38.97;21.27;;;;;;;15.14;76.13;101368.16;4987923;28;20088;-76
2022/06/06 06:07:17;;;;;;;39.67;21.52;;;;;;;15.18;75.81;101366.44;4990681;28;20026;-74
2022/06/06 06:09:55;;;;;;;36.53;20.52;;;;;;;15.21;74.63;101372.63;4990683;28;20053;-74
2022/06/06 06:12:40;;;;;;;37.83;21.30;;;;;;;15.22;75.57;101369.16;4990608;28;20109;-74
2022/06/06 06:15:33;;;;;;;34.05;20.10;;;;;;;15.29;75.86;101370.09;4990369;28;20933;-74
2022/06/06 06:18:01;;;;;;;40.22;21.65;;;;;;;15.35;76.84;101380.69;4988927;28;20112;-74
2022/06/06 06:20:31;;;;;;;36.38;20.67;;;;;;;15.38;74.34;101375.47;4989907;28;20026;-74
2022/06/06 06:23:01;;;;;;;35.70;19.60;;;;;;;15.42;73.80;101376.38;4989155;28;20029;-74
2022/06/06 06:25:28;;;;;;;31.45;18.40;;;;;;;15.40;73.94;101373.75;4988601;28;20041;-74
2022/06/06 06:28:01;;;;;;;28.77;16.75;;;;;;;15.44;74.63;101380.81;4984361;28;20033;-74
2022/06/06 06:30:34;;;;;;;31.00;16.33;;;;;;;15.46;74.59;101379.06;4988557;28;20101;-74
2022/06/06 06:32:59;;;;;;;26.50;15.80;;;;;;;15.53;74.85;101384.41;4986364;28;20055;-74
2022/06/06 06:35:37;;;;;;;25.00;13.68;;;;;;;15.55;73.95;101390.53;4991091;28;20030;-74
2022/06/06 06:38:17;;;;;;;26.08;12.55;;;;;;;15.58;73.93;101396.72;4990181;28;20112;-75
2022/06/06 06:41:25;;;;;;;20.73;12.00;;;;;;;15.69;74.56;101401.22;4990766;28;20038;-75
2022/06/06 06:44:21;;;;;;;19.83;11.07;;;;;;;15.78;74.76;101403.94;4990080;28;20081;-75
2022/06/06 06:47:10;;;;;;;15.95;9.80;;;;;;;15.83;72.18;101394.41;4990258;28;20034;-76
2022/06/06 06:49:40;;;;;;;;;;;;;;;15.88;73.11;101397.97;4989444;28;20073;-75
2022/06/06 06:52:24;;;;;;;14.82;9.00;;;;;;;15.76;72.41;101409.19;4990152;28;19909;-76
2022/06/06 06:55:08;;;;;;;14.32;8.20;;;;;;;15.72;71.93;101412.63;4989785;28;20042;-76
2022/06/06 06:57:52;;;;;;;13.52;7.90;;;;;;;15.72;72.27;101407.38;4990127;28;20026;-76
2022/06/06 07:00:17;;;;;;;14.48;7.93;;;;;;;15.70;71.37;101409.13;4990477;28;20030;-76
2022/06/06 07:09:01;;;;;;;10.93;5.65;;;;;;;15.82;71.74;101406.66;4987990;28;20062;-74
2022/06/06 07:11:42;;;;;;;10.07;5.43;;;;;;;15.86;71.00;101401.44;4985317;28;20123;-75
2022/06/06 07:14:39;;;;;;;11.88;4.97;;;;;;;15.93;70.78;101405.88;4989347;28;20105;-74
2022/06/06 07:17:05;;;;;;;13.02;5.38;;;;;;;15.93;70.73;101405.88;4993681;28;20410;-74
2022/06/06 07:19:47;;;;;;;11.85;5.88;;;;;;;15.97;70.82;101410.31;4993245;28;20030;-75
2022/06/06 07:22:15;;;;;;;11.07;5.55;;;;;;;15.99;70.18;101412.09;4991491;28;20061;-74
2022/06/06 07:24:43;;;;;;;15.48;7.95;;;;;;;16.02;69.39;101411.25;4990273;28;20028;-74
2022/06/06 07:27:10;;;;;;;9.38;5.88;;;;;;;16.05;68.21;101413.91;4981478;28;20042;-74
2022/06/06 07:29:37;;;;;;;8.32;6.25;;;;;;;16.08;67.77;101411.31;4989435;28;20058;-74
2022/06/06 07:32:33;;;;;;;10.20;6.38;;;;;;;16.15;69.10;101415.75;4993056;28;20061;-75
2022/06/06 07:35:02;;;;;;;9.13;6.05;;;;;;;16.20;68.42;101413.16;4992573;28;20030;-74
2022/06/06 07:37:27;;;;;;;10.75;6.55;;;;;;;16.25;67.62;101416.75;4993304;28;20041;-75
2022/06/06 07:40:26;;;;;;;9.93;6.75;;;;;;;16.29;68.78;101421.16;4991298;28;20038;-75
2022/06/06 07:43:09;;;;;;;12.30;6.50;;;;;;;16.30;67.49;101422.91;4991276;28;20508;-75
2022/06/06 07:45:44;;;;;;;7.13;5.70;;;;;;;16.30;66.82;101428.16;4992933;28;20026;-75
2022/06/06 07:48:42;;;;;;;9.68;6.32;;;;;;;16.30;68.28;101429.91;4991507;28;20387;-75
2022/06/06 07:51:29;;;;;;;9.43;5.68;;;;;;;16.30;68.76;101427.28;4985825;28;20092;-74
2022/06/06 07:54:09;;;;;;;11.25;7.22;;;;;;;16.27;67.75;101433.41;4991368;28;20022;-74
2022/06/06 07:56:59;;;;;;;12.00;6.45;;;;;;;16.29;68.44;101426.41;4991913;28;20042;-75
2022/06/06 07:59:28;;;;;;;11.20;6.90;;;;;;;16.29;66.66;101426.41;4991484;28;20030;-75
2022/06/06 08:02:31;;;;;;;9.73;6.95;;;;;;;16.30;66.99;101422.91;4991161;28;20077;-75
2022/06/06 08:05:11;;;;;;;10.85;6.82;;;;;;;16.26;68.05;101420.25;4981206;28;20027;-74
2022/06/06 08:08:17;;;;;;;9.98;7.15;;;;;;;16.27;68.48;101424.63;4991231;28;20089;-75
2022/06/06 08:10:45;;;;;;;9.18;6.97;;;;;;;16.23;67.42;101430.72;4992465;28;20085;-75
2022/06/06 08:13:29;;;;;;;10.75;7.65;;;;;;;16.20;67.16;101426.31;4992214;28;20474;-74
2022/06/06 08:16:08;;;;;;;11.38;7.47;;;;;;;16.22;68.01;101424.59;4984648;28;20035;-75
2022/06/06 08:19:02;;;;;;;11.10;7.72;;;;;;;16.22;66.56;101434.22;4987444;28;20030;-77
2022/06/06 08:21:42;;;;;;;9.18;7.03;;;;;;;16.17;65.86;101419.28;4990422;28;20030;-77
2022/06/06 08:24:14;;;;;;;9.45;7.63;;;;;;;16.20;67.15;101425.44;4989189;28;20580;-77
2022/06/06 08:26:41;;;;;;;11.38;7.53;;;;;;;16.22;67.09;101421.97;4985230;28;20554;-78
2022/06/06 08:29:08;;;;;;;12.57;7.80;;;;;;;16.21;67.36;101427.22;4992480;28;20425;-78
2022/06/06 08:31:34;;;;;;;12.70;6.85;;;;;;;16.21;65.99;101420.19;4979115;28;20047;-78
2022/06/06 08:34:00;;;;;;;10.00;7.10;;;;;;;16.23;67.43;101418.44;4987557;28;20030;-77
2022/06/06 08:36:46;;;;;;;9.38;6.13;;;;;;;16.24;68.26;101407.06;4992028;28;20029;-78
2022/06/06 08:39:38;;;;;;;8.55;5.60;;;;;;;16.23;67.08;101409.69;4988315;28;20042;-78
2022/06/06 08:42:43;;;;;;;8.65;5.55;;;;;;;16.29;68.50;101407.13;4990529;28;20057;-78
2022/06/06 08:45:35;;;;;;;7.85;4.22;;;;;;;16.28;68.29;101408.88;4992296;28;20041;-78
2022/06/06 08:48:38;;;;;;;11.38;4.30;;;;;;;16.31;68.76;101406.25;4991907;28;20478;-77
2022/06/06 08:51:35;;;;;;;10.77;4.07;;;;;;;16.32;67.05;101407.13;4991840;28;20080;-76
2022/06/06 08:54:40;;;;;;;6.82;3.75;;;;;;;16.31;67.99;101403.63;4990140;28;20050;-76
2022/06/06 08:57:44;;;;;;;10.65;5.07;;;;;;;16.32;67.02;101394.88;4984479;28;20124;-76
2022/06/06 09:00:13;;;;;;;12.40;6.65;;;;;;;16.34;67.42;101393.13;4989357;28;20100;-77
2022/06/06 09:02:56;;;;;;;15.00;8.77;;;;;;;16.39;67.33;101397.56;4991786;28;20033;-77
2022/06/06 09:05:43;;;;;;;19.35;9.40;;;;;;;16.43;66.96;101402.00;4989641;28;20042;-76
2022/06/06 09:08:15;;;;;;;16.13;8.60;;;;;;;16.48;66.18;101410.78;4989331;28;20033;-77
2022/06/06 09:10:53;;;;;;;14.20;7.82;;;;;;;16.50;66.57;101396.78;4991578;28;21252;-76
2022/06/06 09:13:41;;;;;;;14.90;7.25;;;;;;;16.55;67.61;101403.84;4990479;28;20030;-76
2022/06/06 09:16:28;;;;;;;16.42;7.10;;;;;;;16.57;67.97;101402.06;4989022;28;20514;-77
2022/06/06 09:19:18;;;;;;;12.63;6.45;;;;;;;16.59;67.95;101405.63;4991183;28;20084;-78
2022/06/06 09:22:05;;;;;;;12.00;6.45;;;;;;;16.51;65.22;101395.91;4991416;28;20030;-79
2022/06/06 09:24:51;;;;;;;13.20;6.38;;;;;;;16.51;66.81;101397.66;4989119;28;20088;-78
2022/06/06 09:27:54;;;;;;;11.80;5.85;;;;;;;16.49;67.38;101397.63;4981243;28;20468;-78
2022/06/06 09:30:57;;;;;;;12.00;5.78;;;;;;;16.47;67.45;101386.22;4980427;28;20030;-78
2022/06/06 09:33:22;;;;;;;9.23;5.32;;;;;;;16.47;66.95;101393.25;4989499;28;20038;-78
2022/06/06 09:36:06;;;;;;;9.93;4.47;;;;;;;16.51;66.66;101380.13;4990177;28;20422;-78
2022/06/06 09:38:45;;;;;;;9.98;4.65;;;;;;;16.62;68.32;101382.84;4990757;28;20034;-78
2022/06/06 09:41:48;;;;;;;8.05;4.75;;;;;;;16.77;68.88;101376.81;4986826;28;20398;-78
2022/06/06 09:44:16;;;;;;;7.35;4.00;;;;;;;16.93;68.25;101377.81;4989394;28;20056;-79
2022/06/06 09:47:00;;;;;;;7.13;4.00;;;;;;;17.05;67.64;101363.84;4991572;28;20034;-79
2022/06/06 09:49:39;;;;;;;8.63;4.30;;;;;;;17.16;67.09;101362.16;4989762;28;20485;-79
2022/06/06 10:00:21;;;;;;;7.07;3.70;;;;;;;17.44;62.51;101356.97;5029479;28;20103;-70
2022/06/06 10:03:03;;;;;;;5.53;3.50;;;;;;;17.43;62.79;101356.97;5021151;28;20033;-75
2022/06/06 10:05:34;;;;;;;7.60;4.03;;;;;;;17.43;62.89;101347.31;5016002;28;20030;-73
2022/06/06 10:08:27;;;;;;;7.45;4.05;;;;;;;17.50;62.65;101349.09;5020096;28;20033;-73
2022/06/06 10:10:58;;;;;;;6.38;3.78;;;;;;;17.55;62.02;101360.53;5022898;28;20025;-74
2022/06/06 10:13:58;;;;;;;9.10;3.95;;;;;;;17.55;61.67;101352.63;5023138;28;20570;-73
2022/06/06 10:16:36;;;;;;;6.85;3.88;;;;;;;17.55;62.94;101350.00;5019736;28;20041;-70
2022/06/06 10:19:13;;;;;;;8.55;4.78;;;;;;;17.55;61.69;101347.38;5027924;28;20043;-70
2022/06/06 10:21:54;;;;;;;9.30;4.63;;;;;;;17.52;61.77;101341.19;5025968;28;20029;-69
2022/06/06 10:24:36;;;;;;;7.82;4.55;;;;;;;17.48;62.14;101340.31;5026581;28;20030;-70
2022/06/06 10:27:25;;;;;;;8.23;4.50;;;;;;;17.46;62.76;101342.03;5030382;28;20037;-70
2022/06/06 10:30:12;;;;;;;6.38;4.22;;;;;;;17.42;62.91;101337.63;5025047;28;20061;-70
2022/06/06 10:33:15;;;;;;;7.18;4.20;;;;;;;17.41;62.93;101338.53;5024619;28;20072;-70
2022/06/06 10:36:02;;;;;;;7.25;4.40;;;;;;;17.47;62.49;101343.81;5027227;28;20123;-70
2022/06/06 10:38:45;;;;;;;8.80;4.20;;;;;;;17.52;61.96;101341.19;5029034;28;20025;-71
2022/06/06 10:41:38;;;;;;;9.05;4.38;;;;;;;17.56;62.60;101343.81;5028158;28;20128;-70
2022/06/06 10:44:45;;;;;;;11.25;4.40;;;;;;;17.62;62.38;101353.50;5026704;28;20025;-70
2022/06/06 10:47:47;;;;;;;9.23;4.10;;;;;;;17.67;63.07;101351.78;5030207;28;20432;-70
2022/06/06 10:50:29;;;;;;;9.80;4.47;;;;;;;17.71;62.46;101348.28;5028331;28;20057;-70
2022/06/06 10:53:19;;;;;;;8.27;4.40;;;;;;;17.77;63.76;101350.06;5030194;28;20029;-70
2022/06/06 10:56:18;;;;;;;7.28;3.95;;;;;;;17.85;64.02;101350.06;5030992;28;20025;-69
2022/06/06 10:58:55;;;;;;;6.47;3.80;;;;;;;17.85;61.12;101350.91;5050112;28;20518;-70
2022/06/06 11:01:38;;;;;;;9.48;4.53;;;;;;;17.89;63.24;101346.56;5050036;28;20133;-70
2022/06/06 11:04:34;;;;;;;8.45;4.40;;;;;;;17.96;62.75;101343.06;5040355;28;20064;-70
2022/06/06 11:07:18;;;;;;;7.75;4.18;;;;;;;18.04;62.30;101329.88;5045294;28;20029;-70
2022/06/06 11:10:13;;;;;;;6.63;4.00;;;;;;;18.04;61.96;101335.16;5048466;28;20079;-70
2022/06/06 11:13:11;;;;;;;9.93;4.45;;;;;;;17.98;61.73;101338.66;5037555;28;20036;-70
2022/06/06 11:16:08;;;;;;;6.55;4.47;;;;;;;18.01;62.00;101317.56;5049070;28;20056;-70
2022/06/06 11:19:05;;;;;;;11.00;4.40;;;;;;;18.02;62.27;101326.38;5020782;28;20041;-70
2022/06/06 11:21:58;;;;;;;6.28;4.00;;;;;;;18.00;60.31;101321.13;5041592;28;20036;-70
2022/06/06 11:24:27;;;;;;;6.07;3.80;;;;;;;18.02;60.35;101315.84;5048439;28;20067;-70
2022/06/06 11:26:57;;;;;;;7.38;4.10;;;;;;;18.07;61.17;101304.41;5049750;28;20048;-70
2022/06/06 11:29:37;;;;;;;10.48;3.95;;;;;;;18.16;60.80;101307.91;5047709;28;20036;-70
2022/06/06 11:32:40;;;;;;;7.63;4.28;;;;;;;18.23;59.94;101304.38;5048716;28;20495;-70
2022/06/06 11:35:27;;;;;;;8.73;4.40;;;;;;;18.20;58.86;101309.66;5048965;28;20049;-70
2022/06/06 11:38:11;;;;;;;8.57;3.65;;;;;;;18.16;57.97;101308.81;5041771;28;20021;-70
2022/06/06 11:41:21;;;;;;;7.88;3.80;;;;;;;18.15;58.97;101316.72;5035893;28;20488;-70
2022/06/06 11:43:55;;;;;;;8.65;3.90;;;;;;;18.12;57.22;101312.31;5043742;28;20447;-70
2022/06/06 11:46:39;;;;;;;9.13;3.92;;;;;;;18.14;58.80;101326.38;5047057;28;20021;-71
2022/06/06 11:49:16;;;;;;;8.98;4.15;;;;;;;18.12;58.65;101322.88;5041890;28;20579;-70
2022/06/06 11:52:18;;;;;;;10.13;3.97;;;;;;;18.12;58.80;101317.59;5045465;28;20041;-71
2022/06/06 11:55:17;;;;;;;9.85;4.38;;;;;;;18.08;58.69;101311.44;5046910;28;20199;-70
2022/06/06 11:57:45;;;;;;;;;;;;;;;18.12;59.82;101325.50;5046147;28;20053;-69
2022/06/06 12:00:22;;;;;;;9.25;3.92;;;;;;;18.03;58.82;101331.66;5048967;28;20371;-70
2022/06/06 12:03:25;;;;;;;8.27;3.67;;;;;;;17.99;58.57;101321.13;5046283;28;20484;-70
2022/06/06 12:06:18;;;;;;;7.85;4.07;;;;;;;17.92;58.08;101320.22;5039452;28;20021;-70
2022/06/06 12:09:05;;;;;;;8.20;4.05;;;;;;;17.87;59.00;101317.56;5051612;28;20396;-70
2022/06/06 12:12:07;;;;;;;5.80;3.92;;;;;;;17.86;60.00;101323.69;5052605;28;20024;-70
2022/06/06 12:14:54;;;;;;;7.75;4.03;;;;;;;17.84;59.47;101317.56;5049347;28;20030;-70
2022/06/06 12:17:55;;;;;;;8.52;4.00;;;;;;;17.82;59.36;101324.56;5052524;28;20033;-70
2022/06/06 12:20:42;;;;;;;5.90;4.03;;;;;;;17.77;57.87;101333.34;5050445;28;20079;-70
2022/06/06 12:23:10;;;;;;;7.57;4.10;;;;;;;17.75;58.88;101325.44;5051334;28;20029;-70
2022/06/06 12:25:36;;;;;;;7.00;3.93;;;;;;;17.77;58.86;101325.44;5041293;28;20030;-70
2022/06/06 12:28:26;;;;;;;7.82;4.32;;;;;;;17.78;59.79;101325.44;5044043;28;20291;-70
2022/06/06 12:31:19;;;;;;;8.07;4.28;;;;;;;17.81;59.29;101316.66;5046540;28;20099;-71
2022/06/06 12:33:59;;;;;;;7.22;4.05;;;;;;;17.78;59.56;101312.25;5051523;28;20040;-70
2022/06/06 12:36:29;;;;;;;9.00;4.30;;;;;;;17.77;58.47;101315.78;5051047;28;20114;-70